sensor_id;sensor_type;location;lat;lon;timestamp;P1;durP1;ratioP1;P2;durP2;ratioP2
14187;SDS011;7175;51.978;5.330;2022-10-17T00:01:23;67.57;;;62.97;;
14187;SDS011;7175;51.978;5.330;2022-10-17T00:03:51;66.40;;;61.83;;
14187;SDS011;7175;51.978;5.330;2022-10-17T00:06:19;67.20;;;62.60;;
14187;SDS011;7175;51.978;5.330;2022-10-17T00:08:47;64.50;;;60.00;;
14187;SDS011;7175;51.978;5.330;2022-10-17T00:11:18;67.50;;;62.80;;
14187;SDS011;7175;51.978;5.330;2022-10-17T00:13:49;70.27;;;65.37;;
14187;SDS011;7175;51.978;5.330;2022-10-17T00:16:22;68.47;;;63.60;;
14187;SDS011;7175;51.978;5.330;2022-10-17T00:18:52;68.70;;;63.80;;
14187;SDS011;7175;51.978;5.330;2022-10-17T00:21:20;72.47;;;67.40;;
14187;SDS011;7175;51.978;5.330;2022-10-17T00:23:49;73.00;;;67.90;;
14187;SDS011;7175;51.978;5.330;2022-10-17T00:26:19;72.20;;;67.10;;
14187;SDS011;7175;51.978;5.330;2022-10-17T00:28:48;69.53;;;64.53;;
14187;SDS011;7175;51.978;5.330;2022-10-17T00:31:18;73.30;;;68.10;;
14187;SDS011;7175;51.978;5.330;2022-10-17T00:33:47;76.03;;;70.73;;
14187;SDS011;7175;51.978;5.330;2022-10-17T00:36:16;75.73;;;70.53;;
14187;SDS011;7175;51.978;5.330;2022-10-17T00:38:47;77.40;;;72.00;;
14187;SDS011;7175;51.978;5.330;2022-10-17T00:41:18;76.87;;;71.47;;
14187;SDS011;7175;51.978;5.330;2022-10-17T00:43:50;75.10;;;69.77;;
14187;SDS011;7175;51.978;5.330;2022-10-17T00:46:20;76.67;;;71.27;;
14187;SDS011;7175;51.978;5.330;2022-10-17T00:48:50;77.90;;;72.30;;
14187;SDS011;7175;51.978;5.330;2022-10-17T00:51:24;78.30;;;72.80;;
14187;SDS011;7175;51.978;5.330;2022-10-17T00:53:58;78.37;;;72.77;;
14187;SDS011;7175;51.978;5.330;2022-10-17T00:56:29;76.90;;;71.40;;
14187;SDS011;7175;51.978;5.330;2022-10-17T00:58:58;78.70;;;73.10;;
14187;SDS011;7175;51.978;5.330;2022-10-17T01:01:26;74.73;;;69.33;;
14187;SDS011;7175;51.978;5.330;2022-10-17T01:03:55;75.27;;;69.87;;
14187;SDS011;7175;51.978;5.330;2022-10-17T01:06:24;74.57;;;69.17;;
14187;SDS011;7175;51.978;5.330;2022-10-17T01:08:52;74.90;;;69.53;;
14187;SDS011;7175;51.978;5.330;2022-10-17T01:11:23;74.67;;;69.37;;
14187;SDS011;7175;51.978;5.330;2022-10-17T01:14:03;74.37;;;69.07;;
14187;SDS011;7175;51.978;5.330;2022-10-17T01:16:38;76.00;;;70.60;;
14187;SDS011;7175;51.978;5.330;2022-10-17T01:19:17;76.87;;;71.37;;
14187;SDS011;7175;51.978;5.330;2022-10-17T01:22:02;76.93;;;71.43;;
14187;SDS011;7175;51.978;5.330;2022-10-17T01:24:53;76.13;;;70.63;;
14187;SDS011;7175;51.978;5.330;2022-10-17T01:33:26;79.50;;;73.80;;
14187;SDS011;7175;51.978;5.330;2022-10-17T01:36:00;83.20;;;77.30;;
14187;SDS011;7175;51.978;5.330;2022-10-17T01:38:35;81.20;;;75.20;;
14187;SDS011;7175;51.978;5.330;2022-10-17T01:41:13;82.73;;;76.83;;
14187;SDS011;7175;51.978;5.330;2022-10-17T01:43:49;81.40;;;75.57;;
14187;SDS011;7175;51.978;5.330;2022-10-17T01:46:23;84.23;;;78.27;;
14187;SDS011;7175;51.978;5.330;2022-10-17T01:48:55;81.90;;;76.00;;
14187;SDS011;7175;51.978;5.330;2022-10-17T01:51:27;82.43;;;76.53;;
14187;SDS011;7175;51.978;5.330;2022-10-17T01:54:00;84.07;;;78.03;;
14187;SDS011;7175;51.978;5.330;2022-10-17T01:56:30;80.70;;;74.80;;
14187;SDS011;7175;51.978;5.330;2022-10-17T01:59:02;80.87;;;74.97;;
14187;SDS011;7175;51.978;5.330;2022-10-17T02:01:35;81.50;;;75.60;;
14187;SDS011;7175;51.978;5.330;2022-10-17T02:04:04;80.30;;;74.43;;
14187;SDS011;7175;51.978;5.330;2022-10-17T02:06:35;79.10;;;73.30;;
14187;SDS011;7175;51.978;5.330;2022-10-17T02:09:17;83.13;;;77.13;;
14187;SDS011;7175;51.978;5.330;2022-10-17T02:11:50;83.10;;;77.10;;
14187;SDS011;7175;51.978;5.330;2022-10-17T02:14:31;82.53;;;76.63;;
14187;SDS011;7175;51.978;5.330;2022-10-17T02:17:12;85.07;;;79.07;;
14187;SDS011;7175;51.978;5.330;2022-10-17T02:19:49;79.60;;;73.87;;
14187;SDS011;7175;51.978;5.330;2022-10-17T02:22:24;80.03;;;74.33;;
14187;SDS011;7175;51.978;5.330;2022-10-17T02:25:02;82.50;;;76.60;;
14187;SDS011;7175;51.978;5.330;2022-10-17T02:27:39;82.67;;;76.77;;
14187;SDS011;7175;51.978;5.330;2022-10-17T02:30:13;79.00;;;73.30;;
14187;SDS011;7175;51.978;5.330;2022-10-17T02:32:46;79.73;;;73.93;;
14187;SDS011;7175;51.978;5.330;2022-10-17T02:35:19;78.10;;;72.43;;
14187;SDS011;7175;51.978;5.330;2022-10-17T02:37:48;79.47;;;73.37;;
14187;SDS011;7175;51.978;5.330;2022-10-17T02:40:19;77.80;;;72.10;;
14187;SDS011;7175;51.978;5.330;2022-10-17T02:42:49;73.93;;;68.40;;
14187;SDS011;7175;51.978;5.330;2022-10-17T02:45:21;76.43;;;70.63;;
14187;SDS011;7175;51.978;5.330;2022-10-17T02:47:53;76.60;;;71.00;;
14187;SDS011;7175;51.978;5.330;2022-10-17T02:50:27;74.97;;;69.37;;
14187;SDS011;7175;51.978;5.330;2022-10-17T02:53:04;79.80;;;74.03;;
14187;SDS011;7175;51.978;5.330;2022-10-17T02:55:38;76.77;;;71.17;;
14187;SDS011;7175;51.978;5.330;2022-10-17T02:58:11;77.90;;;72.20;;
14187;SDS011;7175;51.978;5.330;2022-10-17T03:00:46;78.67;;;72.97;;
14187;SDS011;7175;51.978;5.330;2022-10-17T03:03:20;76.60;;;71.00;;
14187;SDS011;7175;51.978;5.330;2022-10-17T03:05:49;78.40;;;72.70;;
14187;SDS011;7175;51.978;5.330;2022-10-17T03:08:18;75.90;;;70.30;;
14187;SDS011;7175;51.978;5.330;2022-10-17T03:10:46;73.77;;;68.27;;
14187;SDS011;7175;51.978;5.330;2022-10-17T03:13:14;76.43;;;70.63;;
14187;SDS011;7175;51.978;5.330;2022-10-17T03:15:43;78.67;;;72.87;;
14187;SDS011;7175;51.978;5.330;2022-10-17T03:18:11;78.77;;;72.93;;
14187;SDS011;7175;51.978;5.330;2022-10-17T03:20:41;80.27;;;74.40;;
14187;SDS011;7175;51.978;5.330;2022-10-17T03:23:09;82.07;;;76.00;;
14187;SDS011;7175;51.978;5.330;2022-10-17T03:25:37;80.40;;;74.60;;
14187;SDS011;7175;51.978;5.330;2022-10-17T03:28:05;77.63;;;71.93;;
14187;SDS011;7175;51.978;5.330;2022-10-17T03:30:33;78.13;;;72.43;;
14187;SDS011;7175;51.978;5.330;2022-10-17T03:33:05;81.60;;;75.70;;
14187;SDS011;7175;51.978;5.330;2022-10-17T03:35:33;78.90;;;73.20;;
14187;SDS011;7175;51.978;5.330;2022-10-17T03:38:07;82.40;;;75.97;;
14187;SDS011;7175;51.978;5.330;2022-10-17T03:40:35;79.93;;;74.13;;
14187;SDS011;7175;51.978;5.330;2022-10-17T03:43:03;82.80;;;76.70;;
14187;SDS011;7175;51.978;5.330;2022-10-17T03:45:31;80.60;;;74.80;;
14187;SDS011;7175;51.978;5.330;2022-10-17T03:47:59;81.47;;;75.47;;
14187;SDS011;7175;51.978;5.330;2022-10-17T03:50:27;78.10;;;72.20;;
14187;SDS011;7175;51.978;5.330;2022-10-17T03:52:55;75.13;;;69.60;;
14187;SDS011;7175;51.978;5.330;2022-10-17T03:55:25;79.47;;;73.17;;
14187;SDS011;7175;51.978;5.330;2022-10-17T03:57:53;74.77;;;69.17;;
14187;SDS011;7175;51.978;5.330;2022-10-17T04:00:21;72.70;;;67.20;;
14187;SDS011;7175;51.978;5.330;2022-10-17T04:02:49;73.03;;;67.43;;
14187;SDS011;7175;51.978;5.330;2022-10-17T04:05:17;69.40;;;64.10;;
14187;SDS011;7175;51.978;5.330;2022-10-17T04:07:45;75.93;;;70.33;;
14187;SDS011;7175;51.978;5.330;2022-10-17T04:10:13;79.70;;;73.93;;
14187;SDS011;7175;51.978;5.330;2022-10-17T04:12:43;78.47;;;72.67;;
14187;SDS011;7175;51.978;5.330;2022-10-17T04:15:11;70.50;;;65.10;;
14187;SDS011;7175;51.978;5.330;2022-10-17T04:17:40;72.40;;;66.90;;
14187;SDS011;7175;51.978;5.330;2022-10-17T04:20:08;75.37;;;69.73;;
14187;SDS011;7175;51.978;5.330;2022-10-17T04:22:37;75.80;;;70.20;;
14187;SDS011;7175;51.978;5.330;2022-10-17T04:25:05;74.77;;;69.27;;
14187;SDS011;7175;51.978;5.330;2022-10-17T04:27:33;69.90;;;64.60;;
14187;SDS011;7175;51.978;5.330;2022-10-17T04:30:03;70.07;;;64.27;;
14187;SDS011;7175;51.978;5.330;2022-10-17T04:32:34;63.43;;;58.50;;
14187;SDS011;7175;51.978;5.330;2022-10-17T04:35:03;67.33;;;62.27;;
14187;SDS011;7175;51.978;5.330;2022-10-17T04:37:32;65.90;;;60.90;;
14187;SDS011;7175;51.978;5.330;2022-10-17T04:40:00;65.57;;;60.47;;
14187;SDS011;7175;51.978;5.330;2022-10-17T04:42:28;66.07;;;60.97;;
14187;SDS011;7175;51.978;5.330;2022-10-17T04:44:57;64.17;;;59.17;;
14187;SDS011;7175;51.978;5.330;2022-10-17T04:47:26;64.43;;;59.33;;
14187;SDS011;7175;51.978;5.330;2022-10-17T04:49:55;66.57;;;61.47;;
14187;SDS011;7175;51.978;5.330;2022-10-17T04:52:23;67.90;;;62.70;;
14187;SDS011;7175;51.978;5.330;2022-10-17T04:54:52;68.23;;;63.03;;
14187;SDS011;7175;51.978;5.330;2022-10-17T04:57:20;66.40;;;61.30;;
14187;SDS011;7175;51.978;5.330;2022-10-17T04:59:48;69.73;;;64.43;;
14187;SDS011;7175;51.978;5.330;2022-10-17T05:02:16;67.20;;;62.10;;
14187;SDS011;7175;51.978;5.330;2022-10-17T05:04:45;65.07;;;60.03;;
14187;SDS011;7175;51.978;5.330;2022-10-17T05:07:14;63.93;;;58.93;;
14187;SDS011;7175;51.978;5.330;2022-10-17T05:09:44;63.13;;;58.20;;
14187;SDS011;7175;51.978;5.330;2022-10-17T05:12:13;62.40;;;57.50;;
14187;SDS011;7175;51.978;5.330;2022-10-17T05:14:42;60.73;;;55.83;;
14187;SDS011;7175;51.978;5.330;2022-10-17T05:17:11;58.50;;;53.80;;
14187;SDS011;7175;51.978;5.330;2022-10-17T05:19:42;63.20;;;58.30;;
14187;SDS011;7175;51.978;5.330;2022-10-17T05:22:12;61.70;;;56.80;;
14187;SDS011;7175;51.978;5.330;2022-10-17T05:24:42;61.13;;;56.27;;
14187;SDS011;7175;51.978;5.330;2022-10-17T05:27:11;60.53;;;55.67;;
14187;SDS011;7175;51.978;5.330;2022-10-17T05:29:41;60.63;;;55.70;;
14187;SDS011;7175;51.978;5.330;2022-10-17T05:32:14;59.17;;;54.37;;
14187;SDS011;7175;51.978;5.330;2022-10-17T05:34:43;59.60;;;54.80;;
14187;SDS011;7175;51.978;5.330;2022-10-17T05:37:16;58.00;;;53.23;;
14187;SDS011;7175;51.978;5.330;2022-10-17T05:39:46;60.00;;;54.70;;
14187;SDS011;7175;51.978;5.330;2022-10-17T05:42:17;58.37;;;53.57;;
14187;SDS011;7175;51.978;5.330;2022-10-17T05:44:46;60.10;;;55.30;;
14187;SDS011;7175;51.978;5.330;2022-10-17T05:47:16;63.13;;;58.13;;
14187;SDS011;7175;51.978;5.330;2022-10-17T05:49:45;62.37;;;57.27;;
14187;SDS011;7175;51.978;5.330;2022-10-17T05:52:19;61.40;;;56.40;;
14187;SDS011;7175;51.978;5.330;2022-10-17T05:54:49;60.37;;;55.43;;
14187;SDS011;7175;51.978;5.330;2022-10-17T05:57:18;62.70;;;57.70;;
14187;SDS011;7175;51.978;5.330;2022-10-17T05:59:47;61.13;;;56.20;;
14187;SDS011;7175;51.978;5.330;2022-10-17T06:02:17;71.70;;;66.10;;
14187;SDS011;7175;51.978;5.330;2022-10-17T06:04:50;90.63;;;69.57;;
14187;SDS011;7175;51.978;5.330;2022-10-17T06:07:21;68.37;;;62.87;;
14187;SDS011;7175;51.978;5.330;2022-10-17T06:09:51;66.70;;;61.20;;
14187;SDS011;7175;51.978;5.330;2022-10-17T06:12:21;69.77;;;64.00;;
14187;SDS011;7175;51.978;5.330;2022-10-17T06:14:49;65.97;;;60.43;;
14187;SDS011;7175;51.978;5.330;2022-10-17T06:17:19;71.88;;;65.97;;
14187;SDS011;7175;51.978;5.330;2022-10-17T06:19:49;70.70;;;64.93;;
14187;SDS011;7175;51.978;5.330;2022-10-17T06:22:19;69.80;;;64.10;;
14187;SDS011;7175;51.978;5.330;2022-10-17T06:24:50;68.50;;;62.90;;
14187;SDS011;7175;51.978;5.330;2022-10-17T06:27:20;69.83;;;63.17;;
14187;SDS011;7175;51.978;5.330;2022-10-17T06:29:50;65.50;;;60.00;;
14187;SDS011;7175;51.978;5.330;2022-10-17T06:32:19;66.13;;;60.57;;
14187;SDS011;7175;51.978;5.330;2022-10-17T06:34:48;64.77;;;59.30;;
14187;SDS011;7175;51.978;5.330;2022-10-17T06:37:21;70.57;;;64.80;;
14187;SDS011;7175;51.978;5.330;2022-10-17T06:39:51;68.33;;;62.67;;
14187;SDS011;7175;51.978;5.330;2022-10-17T06:42:20;69.07;;;63.37;;
14187;SDS011;7175;51.978;5.330;2022-10-17T06:44:49;74.10;;;68.10;;
14187;SDS011;7175;51.978;5.330;2022-10-17T06:47:18;69.40;;;63.80;;
14187;SDS011;7175;51.978;5.330;2022-10-17T06:49:49;71.00;;;65.30;;
14187;SDS011;7175;51.978;5.330;2022-10-17T06:52:20;72.70;;;66.80;;
14187;SDS011;7175;51.978;5.330;2022-10-17T06:54:52;70.30;;;64.40;;
14187;SDS011;7175;51.978;5.330;2022-10-17T06:57:22;75.90;;;69.70;;
14187;SDS011;7175;51.978;5.330;2022-10-17T06:59:53;71.90;;;66.00;;
14187;SDS011;7175;51.978;5.330;2022-10-17T07:02:23;76.77;;;70.30;;
14187;SDS011;7175;51.978;5.330;2022-10-17T07:04:53;70.23;;;64.43;;
14187;SDS011;7175;51.978;5.330;2022-10-17T07:07:23;72.93;;;66.93;;
14187;SDS011;7175;51.978;5.330;2022-10-17T07:09:51;72.53;;;66.53;;
14187;SDS011;7175;51.978;5.330;2022-10-17T07:12:19;78.60;;;72.40;;
14187;SDS011;7175;51.978;5.330;2022-10-17T07:14:48;70.73;;;64.93;;
14187;SDS011;7175;51.978;5.330;2022-10-17T07:17:16;66.23;;;60.63;;
14187;SDS011;7175;51.978;5.330;2022-10-17T07:19:45;64.93;;;59.33;;
14187;SDS011;7175;51.978;5.330;2022-10-17T07:22:13;67.37;;;61.67;;
14187;SDS011;7175;51.978;5.330;2022-10-17T07:24:43;67.60;;;61.90;;
14187;SDS011;7175;51.978;5.330;2022-10-17T07:27:11;67.90;;;62.10;;
14187;SDS011;7175;51.978;5.330;2022-10-17T07:29:40;67.63;;;61.90;;
14187;SDS011;7175;51.978;5.330;2022-10-17T07:32:08;70.23;;;64.43;;
14187;SDS011;7175;51.978;5.330;2022-10-17T07:34:36;73.40;;;67.50;;
14187;SDS011;7175;51.978;5.330;2022-10-17T07:37:04;70.73;;;64.83;;
14187;SDS011;7175;51.978;5.330;2022-10-17T07:39:32;69.40;;;63.70;;
14187;SDS011;7175;51.978;5.330;2022-10-17T07:42:03;71.20;;;65.30;;
14187;SDS011;7175;51.978;5.330;2022-10-17T07:44:32;72.53;;;66.63;;
14187;SDS011;7175;51.978;5.330;2022-10-17T07:47:01;72.83;;;66.93;;
14187;SDS011;7175;51.978;5.330;2022-10-17T07:49:30;71.93;;;66.10;;
14187;SDS011;7175;51.978;5.330;2022-10-17T07:51:58;69.50;;;63.70;;
14187;SDS011;7175;51.978;5.330;2022-10-17T07:54:26;68.97;;;63.23;;
14187;SDS011;7175;51.978;5.330;2022-10-17T07:56:54;68.27;;;62.57;;
14187;SDS011;7175;51.978;5.330;2022-10-17T07:59:24;66.00;;;60.40;;
14187;SDS011;7175;51.978;5.330;2022-10-17T08:01:53;66.63;;;61.10;;
14187;SDS011;7175;51.978;5.330;2022-10-17T08:04:22;64.43;;;58.93;;
14187;SDS011;7175;51.978;5.330;2022-10-17T08:06:50;67.57;;;62.07;;
14187;SDS011;7175;51.978;5.330;2022-10-17T08:09:36;65.30;;;59.90;;
14187;SDS011;7175;51.978;5.330;2022-10-17T08:12:04;67.10;;;61.40;;
14187;SDS011;7175;51.978;5.330;2022-10-17T08:14:34;69.47;;;63.67;;
14187;SDS011;7175;51.978;5.330;2022-10-17T08:17:02;71.87;;;65.97;;
14187;SDS011;7175;51.978;5.330;2022-10-17T08:19:30;78.63;;;72.43;;
14187;SDS011;7175;51.978;5.330;2022-10-17T08:21:58;75.13;;;69.07;;
14187;SDS011;7175;51.978;5.330;2022-10-17T08:24:27;76.43;;;69.73;;
14187;SDS011;7175;51.978;5.330;2022-10-17T08:26:55;77.93;;;71.73;;
14187;SDS011;7175;51.978;5.330;2022-10-17T08:29:23;79.17;;;72.87;;
14187;SDS011;7175;51.978;5.330;2022-10-17T08:31:53;80.40;;;74.10;;
14187;SDS011;7175;51.978;5.330;2022-10-17T08:34:26;78.60;;;72.40;;
14187;SDS011;7175;51.978;5.330;2022-10-17T08:36:55;74.97;;;68.87;;
14187;SDS011;7175;51.978;5.330;2022-10-17T08:39:23;76.73;;;70.43;;
14187;SDS011;7175;51.978;5.330;2022-10-17T08:41:55;74.33;;;68.13;;
14187;SDS011;7175;51.978;5.330;2022-10-17T08:44:34;71.40;;;65.40;;
14187;SDS011;7175;51.978;5.330;2022-10-17T08:47:11;72.90;;;66.90;;
14187;SDS011;7175;51.978;5.330;2022-10-17T08:49:44;75.10;;;69.00;;
14187;SDS011;7175;51.978;5.330;2022-10-17T08:52:21;75.03;;;69.00;;
14187;SDS011;7175;51.978;5.330;2022-10-17T08:54:56;74.97;;;68.87;;
14187;SDS011;7175;51.978;5.330;2022-10-17T08:57:25;74.00;;;67.80;;
14187;SDS011;7175;51.978;5.330;2022-10-17T08:59:54;79.67;;;73.30;;
14187;SDS011;7175;51.978;5.330;2022-10-17T09:02:32;81.13;;;74.83;;
14187;SDS011;7175;51.978;5.330;2022-10-17T09:05:13;84.13;;;77.63;;
14187;SDS011;7175;51.978;5.330;2022-10-17T09:07:57;88.17;;;81.47;;
14187;SDS011;7175;51.978;5.330;2022-10-17T09:10:33;92.20;;;85.20;;
14187;SDS011;7175;51.978;5.330;2022-10-17T09:13:14;91.27;;;84.30;;
14187;SDS011;7175;51.978;5.330;2022-10-17T09:16:00;84.63;;;78.03;;
14187;SDS011;7175;51.978;5.330;2022-10-17T09:18:37;85.90;;;79.20;;
14187;SDS011;7175;51.978;5.330;2022-10-17T09:21:12;79.90;;;73.30;;
14187;SDS011;7175;51.978;5.330;2022-10-17T09:23:46;83.27;;;76.67;;
14187;SDS011;7175;51.978;5.330;2022-10-17T09:26:34;87.90;;;80.90;;
14187;SDS011;7175;51.978;5.330;2022-10-17T09:29:04;86.17;;;79.17;;
14187;SDS011;7175;51.978;5.330;2022-10-17T09:31:42;79.97;;;73.27;;
14187;SDS011;7175;51.978;5.330;2022-10-17T09:34:15;86.90;;;80.10;;
14187;SDS011;7175;51.978;5.330;2022-10-17T09:36:43;82.43;;;75.90;;
14187;SDS011;7175;51.978;5.330;2022-10-17T09:39:12;90.00;;;83.30;;
14187;SDS011;7175;51.978;5.330;2022-10-17T09:41:43;87.43;;;80.80;;
14187;SDS011;7175;51.978;5.330;2022-10-17T09:44:17;86.80;;;80.30;;
14187;SDS011;7175;51.978;5.330;2022-10-17T09:46:56;87.17;;;80.60;;
14187;SDS011;7175;51.978;5.330;2022-10-17T09:49:33;89.00;;;82.40;;
14187;SDS011;7175;51.978;5.330;2022-10-17T09:52:03;85.67;;;79.27;;
14187;SDS011;7175;51.978;5.330;2022-10-17T09:54:39;88.50;;;81.90;;
14187;SDS011;7175;51.978;5.330;2022-10-17T09:57:10;86.53;;;80.03;;
14187;SDS011;7175;51.978;5.330;2022-10-17T09:59:40;84.83;;;78.20;;
14187;SDS011;7175;51.978;5.330;2022-10-17T10:02:15;87.23;;;80.63;;
14187;SDS011;7175;51.978;5.330;2022-10-17T10:04:57;85.83;;;79.13;;
14187;SDS011;7175;51.978;5.330;2022-10-17T10:07:31;85.50;;;78.90;;
14187;SDS011;7175;51.978;5.330;2022-10-17T10:10:01;87.93;;;81.13;;
14187;SDS011;7175;51.978;5.330;2022-10-17T10:12:33;91.80;;;85.07;;
14187;SDS011;7175;51.978;5.330;2022-10-17T10:15:04;86.13;;;79.43;;
14187;SDS011;7175;51.978;5.330;2022-10-17T10:18:10;85.87;;;79.17;;
14187;SDS011;7175;51.978;5.330;2022-10-17T10:21:04;84.90;;;78.27;;
14187;SDS011;7175;51.978;5.330;2022-10-17T10:23:37;85.17;;;78.47;;
14187;SDS011;7175;51.978;5.330;2022-10-17T10:26:22;85.90;;;79.03;;
14187;SDS011;7175;51.978;5.330;2022-10-17T10:28:54;82.43;;;75.83;;
14187;SDS011;7175;51.978;5.330;2022-10-17T10:31:27;84.70;;;78.00;;
14187;SDS011;7175;51.978;5.330;2022-10-17T10:33:58;87.93;;;81.13;;
14187;SDS011;7175;51.978;5.330;2022-10-17T10:39:23;85.17;;;78.57;;
14187;SDS011;7175;51.978;5.330;2022-10-17T10:42:05;76.23;;;69.97;;
14187;SDS011;7175;51.978;5.330;2022-10-17T10:44:35;79.93;;;73.63;;
14187;SDS011;7175;51.978;5.330;2022-10-17T10:47:08;81.20;;;74.80;;
14187;SDS011;7175;51.978;5.330;2022-10-17T10:49:43;84.00;;;77.50;;
14187;SDS011;7175;51.978;5.330;2022-10-17T10:52:18;95.93;;;89.03;;
14187;SDS011;7175;51.978;5.330;2022-10-17T10:54:57;88.03;;;81.53;;
14187;SDS011;7175;51.978;5.330;2022-10-17T10:57:32;86.17;;;79.57;;
14187;SDS011;7175;51.978;5.330;2022-10-17T11:00:04;93.23;;;85.90;;
14187;SDS011;7175;51.978;5.330;2022-10-17T11:02:40;84.37;;;78.07;;
14187;SDS011;7175;51.978;5.330;2022-10-17T11:05:13;89.60;;;83.00;;
14187;SDS011;7175;51.978;5.330;2022-10-17T11:07:49;85.97;;;79.67;;
14187;SDS011;7175;51.978;5.330;2022-10-17T11:10:24;83.07;;;76.80;;
14187;SDS011;7175;51.978;5.330;2022-10-17T11:12:58;85.83;;;79.53;;
14187;SDS011;7175;51.978;5.330;2022-10-17T11:15:32;88.10;;;81.70;;
14187;SDS011;7175;51.978;5.330;2022-10-17T11:18:05;84.07;;;77.87;;
14187;SDS011;7175;51.978;5.330;2022-10-17T11:20:37;86.23;;;79.83;;
14187;SDS011;7175;51.978;5.330;2022-10-17T11:23:19;82.53;;;76.27;;
14187;SDS011;7175;51.978;5.330;2022-10-17T11:25:54;85.77;;;79.37;;
14187;SDS011;7175;51.978;5.330;2022-10-17T11:28:27;88.23;;;81.00;;
14187;SDS011;7175;51.978;5.330;2022-10-17T11:30:58;82.77;;;76.57;;
14187;SDS011;7175;51.978;5.330;2022-10-17T11:33:34;84.73;;;77.47;;
14187;SDS011;7175;51.978;5.330;2022-10-17T11:36:08;78.40;;;72.40;;
14187;SDS011;7175;51.978;5.330;2022-10-17T11:38:41;77.93;;;71.97;;
14187;SDS011;7175;51.978;5.330;2022-10-17T11:41:14;75.40;;;69.60;;
14187;SDS011;7175;51.978;5.330;2022-10-17T11:43:47;76.13;;;70.27;;
14187;SDS011;7175;51.978;5.330;2022-10-17T11:46:18;78.10;;;72.20;;
14187;SDS011;7175;51.978;5.330;2022-10-17T11:49:00;74.00;;;68.30;;
14187;SDS011;7175;51.978;5.330;2022-10-17T11:51:36;75.00;;;69.30;;
14187;SDS011;7175;51.978;5.330;2022-10-17T11:54:29;72.73;;;67.13;;
14187;SDS011;7175;51.978;5.330;2022-10-17T12:00:07;71.90;;;66.30;;
14187;SDS011;7175;51.978;5.330;2022-10-17T12:02:52;66.37;;;61.07;;
14187;SDS011;7175;51.978;5.330;2022-10-17T12:05:27;65.27;;;59.77;;
14187;SDS011;7175;51.978;5.330;2022-10-17T12:08:07;69.03;;;63.57;;
14187;SDS011;7175;51.978;5.330;2022-10-17T12:10:44;65.23;;;60.03;;
14187;SDS011;7175;51.978;5.330;2022-10-17T12:19:19;63.47;;;58.37;;
14187;SDS011;7175;51.978;5.330;2022-10-17T12:21:54;67.00;;;61.80;;
14187;SDS011;7175;51.978;5.330;2022-10-17T12:24:34;65.27;;;60.07;;
14187;SDS011;7175;51.978;5.330;2022-10-17T12:30:03;58.77;;;53.97;;
14187;SDS011;7175;51.978;5.330;2022-10-17T12:32:55;61.07;;;56.17;;
14187;SDS011;7175;51.978;5.330;2022-10-17T12:35:42;58.67;;;53.97;;
14187;SDS011;7175;51.978;5.330;2022-10-17T12:38:17;56.60;;;52.00;;
14187;SDS011;7175;51.978;5.330;2022-10-17T12:40:48;56.77;;;52.17;;
14187;SDS011;7175;51.978;5.330;2022-10-17T12:46:39;55.60;;;51.07;;
14187;SDS011;7175;51.978;5.330;2022-10-17T12:49:22;56.50;;;51.90;;
14187;SDS011;7175;51.978;5.330;2022-10-17T12:52:14;59.20;;;54.50;;
14187;SDS011;7175;51.978;5.330;2022-10-17T12:54:45;57.30;;;52.70;;
14187;SDS011;7175;51.978;5.330;2022-10-17T12:57:33;55.30;;;50.80;;
14187;SDS011;7175;51.978;5.330;2022-10-17T13:00:13;53.13;;;48.73;;
14187;SDS011;7175;51.978;5.330;2022-10-17T13:02:48;54.73;;;50.30;;
14187;SDS011;7175;51.978;5.330;2022-10-17T13:05:24;58.97;;;54.37;;
14187;SDS011;7175;51.978;5.330;2022-10-17T13:07:55;57.63;;;53.03;;
14187;SDS011;7175;51.978;5.330;2022-10-17T13:10:26;56.40;;;51.90;;
14187;SDS011;7175;51.978;5.330;2022-10-17T13:12:59;54.60;;;50.20;;
14187;SDS011;7175;51.978;5.330;2022-10-17T13:15:33;56.03;;;51.63;;
14187;SDS011;7175;51.978;5.330;2022-10-17T13:18:03;56.53;;;52.10;;
14187;SDS011;7175;51.978;5.330;2022-10-17T13:20:31;59.13;;;54.53;;
14187;SDS011;7175;51.978;5.330;2022-10-17T13:22:59;54.23;;;49.83;;
14187;SDS011;7175;51.978;5.330;2022-10-17T13:25:27;53.87;;;49.53;;
14187;SDS011;7175;51.978;5.330;2022-10-17T13:28:03;57.67;;;53.17;;
14187;SDS011;7175;51.978;5.330;2022-10-17T13:30:35;55.33;;;51.03;;
14187;SDS011;7175;51.978;5.330;2022-10-17T13:33:09;55.03;;;50.73;;
14187;SDS011;7175;51.978;5.330;2022-10-17T13:35:53;53.60;;;49.40;;
14187;SDS011;7175;51.978;5.330;2022-10-17T13:38:27;53.00;;;48.80;;
14187;SDS011;7175;51.978;5.330;2022-10-17T13:41:01;55.37;;;51.07;;
14187;SDS011;7175;51.978;5.330;2022-10-17T13:43:50;55.30;;;51.00;;
14187;SDS011;7175;51.978;5.330;2022-10-17T13:46:23;53.80;;;49.40;;
14187;SDS011;7175;51.978;5.330;2022-10-17T13:49:08;52.27;;;48.17;;
14187;SDS011;7175;51.978;5.330;2022-10-17T13:51:41;48.50;;;44.70;;
14187;SDS011;7175;51.978;5.330;2022-10-17T13:57:02;48.33;;;44.53;;
14187;SDS011;7175;51.978;5.330;2022-10-17T13:59:33;48.37;;;44.57;;
14187;SDS011;7175;51.978;5.330;2022-10-17T14:02:08;48.83;;;44.93;;
14187;SDS011;7175;51.978;5.330;2022-10-17T14:04:41;48.23;;;44.13;;
14187;SDS011;7175;51.978;5.330;2022-10-17T14:07:31;46.70;;;42.97;;
14187;SDS011;7175;51.978;5.330;2022-10-17T14:10:24;45.50;;;41.90;;
14187;SDS011;7175;51.978;5.330;2022-10-17T14:12:54;45.10;;;41.50;;
14187;SDS011;7175;51.978;5.330;2022-10-17T14:15:23;42.53;;;39.13;;
14187;SDS011;7175;51.978;5.330;2022-10-17T14:17:56;43.37;;;39.87;;
14187;SDS011;7175;51.978;5.330;2022-10-17T14:20:32;43.47;;;39.97;;
14187;SDS011;7175;51.978;5.330;2022-10-17T14:23:31;47.10;;;43.40;;
14187;SDS011;7175;51.978;5.330;2022-10-17T14:26:05;46.13;;;42.47;;
14187;SDS011;7175;51.978;5.330;2022-10-17T14:28:35;44.40;;;40.90;;
14187;SDS011;7175;51.978;5.330;2022-10-17T14:31:09;43.83;;;40.33;;
14187;SDS011;7175;51.978;5.330;2022-10-17T14:33:46;45.03;;;41.43;;
14187;SDS011;7175;51.978;5.330;2022-10-17T14:36:17;45.83;;;42.13;;
14187;SDS011;7175;51.978;5.330;2022-10-17T14:38:46;48.23;;;44.43;;
14187;SDS011;7175;51.978;5.330;2022-10-17T14:41:19;44.67;;;41.17;;
14187;SDS011;7175;51.978;5.330;2022-10-17T14:44:13;42.63;;;39.23;;
14187;SDS011;7175;51.978;5.330;2022-10-17T14:46:48;40.83;;;37.53;;
14187;SDS011;7175;51.978;5.330;2022-10-17T14:49:22;38.20;;;35.10;;
14187;SDS011;7175;51.978;5.330;2022-10-17T14:54:54;37.50;;;34.40;;
14187;SDS011;7175;51.978;5.330;2022-10-17T14:57:24;37.40;;;34.30;;
14187;SDS011;7175;51.978;5.330;2022-10-17T14:59:55;36.23;;;33.33;;
14187;SDS011;7175;51.978;5.330;2022-10-17T15:02:25;39.60;;;36.50;;
14187;SDS011;7175;51.978;5.330;2022-10-17T15:04:55;40.80;;;37.60;;
14187;SDS011;7175;51.978;5.330;2022-10-17T15:07:24;41.07;;;37.87;;
14187;SDS011;7175;51.978;5.330;2022-10-17T15:09:52;38.40;;;35.40;;
14187;SDS011;7175;51.978;5.330;2022-10-17T15:12:21;36.87;;;33.97;;
14187;SDS011;7175;51.978;5.330;2022-10-17T15:14:51;38.20;;;35.20;;
14187;SDS011;7175;51.978;5.330;2022-10-17T15:17:21;39.33;;;36.33;;
14187;SDS011;7175;51.978;5.330;2022-10-17T15:19:51;40.63;;;37.53;;
14187;SDS011;7175;51.978;5.330;2022-10-17T15:22:21;37.40;;;34.50;;
14187;SDS011;7175;51.978;5.330;2022-10-17T15:24:49;37.90;;;35.00;;
14187;SDS011;7175;51.978;5.330;2022-10-17T15:27:18;38.17;;;35.27;;
14187;SDS011;7175;51.978;5.330;2022-10-17T15:29:47;38.33;;;35.43;;
14187;SDS011;7175;51.978;5.330;2022-10-17T15:32:16;39.00;;;36.00;;
14187;SDS011;7175;51.978;5.330;2022-10-17T15:34:44;37.70;;;34.80;;